createdAt,value
2023-05-23T00:00:59.256Z,8.75
2023-05-23T00:02:02.595Z,11.48
2023-05-23T00:03:06.544Z,6.45
2023-05-23T00:04:11.238Z,9.45
2023-05-23T00:05:15.996Z,7.97
2023-05-23T00:06:22.190Z,13.13
2023-05-23T00:07:26.805Z,8.35
2023-05-23T00:08:30.072Z,13.20
2023-05-23T00:09:33.418Z,8.80
2023-05-23T00:10:36.909Z,13.10
2023-05-23T00:11:40.028Z,9.60
2023-05-23T00:12:43.148Z,10.82
2023-05-23T00:13:47.149Z,6.50
2023-05-23T00:14:51.354Z,8.73
2023-05-23T00:15:55.102Z,11.38
2023-05-23T00:16:58.885Z,11.40
2023-05-23T00:18:02.192Z,10.38
2023-05-23T00:19:05.968Z,7.60
2023-05-23T00:20:11.879Z,12.88
2023-05-23T00:21:15.444Z,12.07
2023-05-23T00:22:18.845Z,16.95
2023-05-23T00:23:22.999Z,14.05
2023-05-23T00:24:26.461Z,10.57
2023-05-23T00:25:34.814Z,11.82
2023-05-23T00:26:38.322Z,8.15
2023-05-23T00:27:41.270Z,11.13
2023-05-23T00:28:44.751Z,8.32
2023-05-23T00:29:47.871Z,11.02
2023-05-23T00:30:51.252Z,9.32
2023-05-23T00:31:54.638Z,13.52
2023-05-23T00:32:58.178Z,11.07
2023-05-23T00:34:01.761Z,12.73
2023-05-23T00:35:05.643Z,13.68
2023-05-23T00:36:09.329Z,13.65
2023-05-23T00:37:12.798Z,7.80
2023-05-23T00:38:16.489Z,5.65
2023-05-23T00:39:20.437Z,14.00
2023-05-23T00:40:24.317Z,10.85
2023-05-23T00:41:27.846Z,13.00
2023-05-23T00:42:33.504Z,13.02
2023-05-23T00:43:37.364Z,15.00
2023-05-23T00:44:40.910Z,6.95
2023-05-23T00:45:44.330Z,16.20
2023-05-23T00:46:49.715Z,11.50
2023-05-23T00:47:53.317Z,10.95
2023-05-23T00:48:56.631Z,12.02
2023-05-23T00:50:00.291Z,12.02
2023-05-23T00:51:04.295Z,12.00
2023-05-23T00:52:07.972Z,14.20
2023-05-23T00:53:11.469Z,9.43
2023-05-23T00:54:14.855Z,11.68
2023-05-23T00:55:18.514Z,13.30
2023-05-23T00:56:22.236Z,15.75
2023-05-23T00:57:25.586Z,11.57
2023-05-23T00:58:29.171Z,12.80
2023-05-23T00:59:32.358Z,12.57
2023-05-23T01:00:36.835Z,11.07
2023-05-23T01:01:41.195Z,8.85
2023-05-23T01:02:48.443Z,9.13
2023-05-23T01:03:51.742Z,14.80
2023-05-23T01:04:56.072Z,7.40
2023-05-23T01:05:59.506Z,10.35
2023-05-23T01:07:03.287Z,5.90
2023-05-23T01:08:07.605Z,11.65
2023-05-23T01:09:11.307Z,18.17
2023-05-23T01:10:15.264Z,8.65
2023-05-23T01:11:31.194Z,11.00
2023-05-23T01:12:34.207Z,12.55
2023-05-23T01:13:43.146Z,7.30
2023-05-23T01:14:50.269Z,9.82
2023-05-23T01:16:14.168Z,8.70
2023-05-23T01:17:29.618Z,15.77
2023-05-23T01:18:42.289Z,7.93
2023-05-23T01:20:01.736Z,15.55
2023-05-23T01:21:10.308Z,15.70
2023-05-23T01:22:22.397Z,17.58
2023-05-23T01:23:45.468Z,17.40
2023-05-23T01:24:55.727Z,13.70
2023-05-23T01:26:17.794Z,13.82
2023-05-23T01:27:42.825Z,22.13
2023-05-23T01:28:51.232Z,15.00
2023-05-23T01:29:57.350Z,11.07
2023-05-23T01:31:01.314Z,19.92
2023-05-23T01:32:05.176Z,13.65
2023-05-23T01:33:09.280Z,13.90
2023-05-23T01:34:14.206Z,13.60
2023-05-23T01:35:23.401Z,13.40
2023-05-23T01:36:26.349Z,14.57
2023-05-23T01:37:30.386Z,14.63
2023-05-23T01:38:34.120Z,11.77
2023-05-23T01:39:38.277Z,14.50
2023-05-23T01:40:41.743Z,17.33
2023-05-23T01:41:46.083Z,12.13
2023-05-23T01:42:49.216Z,15.05
2023-05-23T01:43:52.458Z,10.98
2023-05-23T01:44:59.917Z,11.55
2023-05-23T01:46:03.475Z,15.70
2023-05-23T01:47:08.244Z,11.93
2023-05-23T01:48:12.779Z,12.30
2023-05-23T01:49:16.589Z,15.32
2023-05-23T01:50:20.313Z,14.50
2023-05-23T01:51:24.315Z,10.15
2023-05-23T01:52:28.534Z,11.60
2023-05-23T01:53:32.492Z,11.48
2023-05-23T01:54:35.947Z,12.43
2023-05-23T01:55:40.283Z,14.30
2023-05-23T01:56:44.586Z,12.63
2023-05-23T01:57:52.193Z,12.70
2023-05-23T01:58:55.753Z,9.27
2023-05-23T01:59:59.233Z,19.10
2023-05-23T02:01:03.620Z,15.13
2023-05-23T02:02:07.485Z,17.50
2023-05-23T02:03:10.938Z,12.35
2023-05-23T02:04:14.995Z,17.92
2023-05-23T02:05:18.437Z,15.38
2023-05-23T02:06:21.938Z,17.13
2023-05-23T02:07:25.360Z,21.02
2023-05-23T02:08:28.731Z,18.75
2023-05-23T02:09:32.493Z,22.02
2023-05-23T02:10:35.602Z,15.60
2023-05-23T02:11:39.232Z,13.45
2023-05-23T02:12:42.511Z,13.90
2023-05-23T02:13:46.126Z,16.88
2023-05-23T02:14:53.142Z,12.32
2023-05-23T02:15:56.140Z,10.35
2023-05-23T02:17:00.960Z,12.20
2023-05-23T02:18:05.173Z,12.00
2023-05-23T02:19:08.908Z,12.23
2023-05-23T02:20:12.415Z,13.10
2023-05-23T02:21:15.973Z,10.32
2023-05-23T02:22:19.564Z,11.70
2023-05-23T02:23:24.045Z,12.18
2023-05-23T02:24:27.152Z,12.93
2023-05-23T02:25:30.401Z,11.43
2023-05-23T02:26:33.670Z,10.95
2023-05-23T02:27:37.002Z,10.73
2023-05-23T02:28:40.636Z,11.93
2023-05-23T02:29:44.645Z,11.52
2023-05-23T02:30:48.053Z,10.93
2023-05-23T02:31:51.676Z,12.70
2023-05-23T02:32:55.272Z,10.68
2023-05-23T02:33:59.172Z,9.20
2023-05-23T02:35:02.766Z,14.27
2023-05-23T02:36:06.434Z,13.95
2023-05-23T02:37:09.585Z,13.63
2023-05-23T02:38:14.917Z,10.13
2023-05-23T02:39:18.768Z,10.30
2023-05-23T02:40:23.073Z,10.95
2023-05-23T02:41:26.302Z,12.63
2023-05-23T02:42:29.649Z,18.80
2023-05-23T02:43:32.687Z,10.20
2023-05-23T02:44:36.109Z,10.32
2023-05-23T02:45:40.001Z,16.50
2023-05-23T02:46:43.622Z,9.80
2023-05-23T02:47:46.762Z,10.02
2023-05-23T02:48:50.060Z,12.85
2023-05-23T02:49:53.118Z,12.40
2023-05-23T02:50:56.553Z,13.07
2023-05-23T02:51:59.475Z,16.83
2023-05-23T02:53:02.616Z,12.80
2023-05-23T02:54:06.002Z,10.25
2023-05-23T02:55:12.936Z,15.20
2023-05-23T02:56:22.723Z,13.95
2023-05-23T02:57:26.167Z,17.67
2023-05-23T02:58:30.415Z,11.55
2023-05-23T02:59:34.538Z,13.20
2023-05-23T03:00:37.729Z,11.60
2023-05-23T03:01:41.527Z,14.80
2023-05-23T03:02:45.321Z,12.27
2023-05-23T03:06:23.769Z,11.52
2023-05-23T03:07:28.781Z,11.15
2023-05-23T03:08:32.736Z,12.40
2023-05-23T03:09:36.428Z,9.07
2023-05-23T03:10:39.451Z,11.45
2023-05-23T03:11:42.616Z,16.42
2023-05-23T03:12:45.972Z,18.33
2023-05-23T03:13:51.113Z,13.00
2023-05-23T03:14:54.553Z,18.38
2023-05-23T03:15:57.884Z,11.15
2023-05-23T03:17:01.213Z,14.88
2023-05-23T03:18:06.737Z,10.50
2023-05-23T03:19:10.063Z,13.00
2023-05-23T03:20:13.383Z,14.32
2023-05-23T03:21:16.394Z,12.95
2023-05-23T03:22:19.470Z,8.85
2023-05-23T03:23:22.729Z,11.27
2023-05-23T03:24:26.536Z,11.00
2023-05-23T03:25:29.579Z,12.40
2023-05-23T03:26:32.940Z,17.08
2023-05-23T03:27:36.058Z,8.90
2023-05-23T03:28:38.979Z,12.02
2023-05-23T03:29:42.288Z,11.68
2023-05-23T03:30:46.958Z,12.05
2023-05-23T03:31:50.195Z,11.23
2023-05-23T03:32:54.360Z,10.48
2023-05-23T03:33:57.606Z,17.80
2023-05-23T03:35:00.750Z,18.67
2023-05-23T03:36:04.007Z,15.68
2023-05-23T03:37:07.193Z,11.85
2023-05-23T03:38:10.145Z,12.98
2023-05-23T03:39:13.762Z,12.90
2023-05-23T03:40:16.965Z,16.45
2023-05-23T03:41:22.226Z,13.88
2023-05-23T03:42:25.966Z,15.63
2023-05-23T03:43:29.091Z,16.00
2023-05-23T03:44:32.654Z,10.75
2023-05-23T03:45:36.126Z,11.65
2023-05-23T03:46:43.945Z,9.32
2023-05-23T03:47:47.067Z,8.57
2023-05-23T03:48:50.482Z,11.73
2023-05-23T03:49:53.735Z,7.32
2023-05-23T03:50:57.016Z,6.82
2023-05-23T03:52:00.899Z,10.00
2023-05-23T03:53:05.411Z,11.30
2023-05-23T03:54:08.712Z,10.95
2023-05-23T03:55:12.146Z,14.35
2023-05-23T03:56:15.459Z,11.13
2023-05-23T03:57:18.799Z,7.55
2023-05-23T03:58:22.183Z,13.95
2023-05-23T03:59:28.575Z,16.42
2023-05-23T04:00:32.043Z,14.88
2023-05-23T04:01:37.076Z,14.02
2023-05-23T04:02:41.066Z,16.15
2023-05-23T04:03:44.681Z,12.07
2023-05-23T04:04:47.912Z,13.20
2023-05-23T04:05:51.614Z,13.40
2023-05-23T04:06:54.807Z,12.80
2023-05-23T04:08:02.002Z,16.52
2023-05-23T04:09:06.921Z,16.08
2023-05-23T04:10:14.643Z,12.57
2023-05-23T04:11:18.626Z,12.88
2023-05-23T04:12:22.633Z,12.95
2023-05-23T04:13:26.851Z,12.85
2023-05-23T04:14:30.206Z,14.63
2023-05-23T04:15:34.803Z,16.92
2023-05-23T04:16:45.295Z,13.13
2023-05-23T04:17:49.467Z,10.70
2023-05-23T04:18:52.757Z,13.85
2023-05-23T04:19:56.127Z,9.32
2023-05-23T04:20:59.591Z,10.73
2023-05-23T04:22:02.771Z,13.65
2023-05-23T04:23:06.076Z,12.60
2023-05-23T04:24:12.902Z,15.75
2023-05-23T04:25:19.276Z,11.50
2023-05-23T04:26:43.713Z,10.40
2023-05-23T04:27:47.923Z,14.25
2023-05-23T04:28:54.883Z,12.88
2023-05-23T04:29:59.183Z,13.35
2023-05-23T04:31:04.062Z,11.27
2023-05-23T04:32:11.918Z,13.88
2023-05-23T04:33:15.070Z,10.48
2023-05-23T04:34:18.785Z,10.85
2023-05-23T04:35:22.048Z,9.88
2023-05-23T04:36:26.249Z,12.88
2023-05-23T04:37:33.489Z,9.10
2023-05-23T04:38:38.989Z,13.20
2023-05-23T04:39:42.365Z,14.25
2023-05-23T04:41:00.519Z,12.77
2023-05-23T04:42:45.400Z,9.77
2023-05-23T04:44:06.809Z,9.40
2023-05-23T04:45:15.863Z,9.38
2023-05-23T04:46:32.945Z,9.15
2023-05-23T04:47:49.466Z,13.65
2023-05-23T04:49:09.900Z,11.60
2023-05-23T04:50:13.913Z,10.90
2023-05-23T04:51:17.603Z,12.93
2023-05-23T04:52:28.912Z,12.30
2023-05-23T04:53:32.390Z,12.25
2023-05-23T04:54:37.132Z,11.55
2023-05-23T04:55:42.670Z,16.98
2023-05-23T04:56:50.966Z,12.82
2023-05-23T04:57:57.315Z,15.63
2023-05-23T04:59:00.717Z,13.88
2023-05-23T05:00:10.926Z,16.52
2023-05-23T05:01:14.966Z,17.75
2023-05-23T05:02:18.438Z,20.08
2023-05-23T05:03:21.525Z,15.85
2023-05-23T05:04:25.015Z,18.75
2023-05-23T05:05:28.615Z,17.60
2023-05-23T05:06:32.162Z,17.60
2023-05-23T05:07:36.347Z,18.40
2023-05-23T05:08:44.346Z,15.55
2023-05-23T05:09:48.019Z,13.55
2023-05-23T05:10:51.735Z,17.30
2023-05-23T05:11:59.968Z,17.17
2023-05-23T05:13:03.812Z,14.13
2023-05-23T05:14:16.184Z,18.27
2023-05-23T05:15:20.759Z,12.35
2023-05-23T05:16:28.826Z,11.65
2023-05-23T05:17:37.389Z,15.60
2023-05-23T05:18:44.316Z,18.55
2023-05-23T05:19:47.395Z,19.80
2023-05-23T05:20:51.271Z,11.15
2023-05-23T05:21:54.771Z,17.23
2023-05-23T05:22:58.554Z,20.48
2023-05-23T05:24:02.629Z,17.92
2023-05-23T05:25:08.167Z,18.17
2023-05-23T05:26:11.271Z,18.35
2023-05-23T05:27:14.782Z,18.08
2023-05-23T05:28:18.334Z,23.33
2023-05-23T05:29:27.259Z,19.85
2023-05-23T05:30:31.181Z,15.68
2023-05-23T05:31:38.247Z,15.48
2023-05-23T05:32:43.125Z,19.20
2023-05-23T05:33:47.244Z,20.73
2023-05-23T05:34:52.132Z,17.00
2023-05-23T05:35:55.175Z,17.02
2023-05-23T05:36:58.611Z,20.33
2023-05-23T05:38:05.309Z,20.70
2023-05-23T05:39:08.204Z,20.08
2023-05-23T05:40:12.929Z,19.63
2023-05-23T05:41:18.863Z,18.88
2023-05-23T05:42:25.283Z,20.48
2023-05-23T05:43:29.800Z,19.80
2023-05-23T05:44:33.284Z,17.15
2023-05-23T05:45:36.749Z,13.95
2023-05-23T05:46:40.504Z,18.13
2023-05-23T05:47:44.569Z,20.95
2023-05-23T05:48:47.981Z,19.13
2023-05-23T05:49:53.518Z,14.63
2023-05-23T05:50:57.279Z,12.88
2023-05-23T05:52:01.095Z,17.40
2023-05-23T05:53:04.922Z,16.65
2023-05-23T05:54:08.627Z,14.65
2023-05-23T05:55:12.106Z,16.15
2023-05-23T05:56:19.731Z,13.45
2023-05-23T05:57:24.684Z,13.85
2023-05-23T05:58:27.972Z,14.15
2023-05-23T05:59:35.349Z,17.55
2023-05-23T06:00:43.418Z,13.27
2023-05-23T06:01:47.033Z,12.55
2023-05-23T06:02:58.396Z,17.08
2023-05-23T06:04:17.862Z,13.88
2023-05-23T06:05:21.348Z,13.73
2023-05-23T06:06:25.327Z,14.30
2023-05-23T06:07:29.720Z,13.45
2023-05-23T06:08:32.720Z,15.32
2023-05-23T06:09:36.656Z,15.75
2023-05-23T06:10:40.688Z,12.75
2023-05-23T06:11:44.658Z,14.07
2023-05-23T06:12:47.877Z,15.10
2023-05-23T06:13:51.105Z,11.35
2023-05-23T06:14:55.386Z,11.73
2023-05-23T06:15:59.337Z,20.88
2023-05-23T06:17:04.155Z,12.45
2023-05-23T06:18:08.015Z,15.98
2023-05-23T06:19:13.027Z,14.23
2023-05-23T06:20:17.082Z,15.35
2023-05-23T06:21:22.976Z,11.38
2023-05-23T06:22:27.907Z,10.57
2023-05-23T06:23:31.128Z,10.52
2023-05-23T06:24:35.072Z,11.55
2023-05-23T06:25:39.833Z,13.07
2023-05-23T06:26:43.077Z,13.65
2023-05-23T06:27:46.869Z,10.27
2023-05-23T06:28:50.421Z,9.18
2023-05-23T06:29:53.921Z,12.18
2023-05-23T06:30:58.622Z,11.50
2023-05-23T06:32:02.524Z,12.10
2023-05-23T06:33:06.560Z,11.65
2023-05-23T06:34:10.377Z,15.30
2023-05-23T06:35:13.977Z,10.55
2023-05-23T06:36:17.628Z,10.57
2023-05-23T06:37:21.019Z,12.20
2023-05-23T06:38:24.345Z,11.85
2023-05-23T06:39:27.930Z,12.07
2023-05-23T06:40:31.625Z,13.90
2023-05-23T06:41:35.081Z,12.13
2023-05-23T06:42:38.651Z,13.65
2023-05-23T06:44:04.748Z,10.65
2023-05-23T06:45:08.913Z,13.95
2023-05-23T06:46:13.119Z,15.98
2023-05-23T06:47:17.163Z,19.90
2023-05-23T06:48:20.301Z,13.25
2023-05-23T06:49:25.624Z,17.23
2023-05-23T06:50:29.197Z,13.55
2023-05-23T06:51:33.532Z,15.20
2023-05-23T06:52:37.289Z,18.77
2023-05-23T06:53:41.310Z,17.02
2023-05-23T06:54:44.689Z,17.52
2023-05-23T06:55:48.340Z,15.15
2023-05-23T06:56:54.865Z,14.23
2023-05-23T06:57:58.345Z,12.85
2023-05-23T06:59:01.649Z,15.40
2023-05-23T07:00:05.979Z,14.27
2023-05-23T07:01:18.224Z,19.73
2023-05-23T07:02:24.772Z,16.05
2023-05-23T07:03:28.525Z,16.40
2023-05-23T07:04:37.239Z,12.60
2023-05-23T07:05:46.480Z,12.32
2023-05-23T07:06:53.663Z,13.38
2023-05-23T07:07:57.590Z,13.18
2023-05-23T07:09:01.602Z,11.85
2023-05-23T07:10:07.590Z,18.95
2023-05-23T07:11:10.914Z,12.65
2023-05-23T07:12:17.289Z,12.88
2023-05-23T07:13:23.342Z,10.65
2023-05-23T07:14:27.206Z,9.52
2023-05-23T07:15:30.298Z,13.10
2023-05-23T07:16:45.881Z,12.15
2023-05-23T07:17:49.738Z,11.95
2023-05-23T07:18:53.427Z,12.50
2023-05-23T07:19:56.986Z,12.40
2023-05-23T07:21:00.833Z,11.68
2023-05-23T07:22:04.448Z,10.82
2023-05-23T07:23:09.142Z,12.25
2023-05-23T07:24:12.534Z,8.82
2023-05-23T07:25:16.127Z,11.32
2023-05-23T07:26:19.350Z,12.65
2023-05-23T07:27:30.643Z,11.20
2023-05-23T07:28:35.005Z,10.70
2023-05-23T07:29:38.227Z,9.20
2023-05-23T07:30:44.809Z,9.07
2023-05-23T07:31:48.251Z,8.95
2023-05-23T07:32:53.417Z,12.68
2023-05-23T07:33:57.324Z,9.52
2023-05-23T07:35:10.359Z,8.50
2023-05-23T07:36:13.738Z,9.45
2023-05-23T07:37:16.947Z,10.60
2023-05-23T07:38:22.092Z,8.10
2023-05-23T07:39:26.445Z,11.52
2023-05-23T07:40:30.123Z,7.93
2023-05-23T07:41:33.450Z,10.80
2023-05-23T07:42:37.359Z,8.50
2023-05-23T07:43:41.584Z,9.57
2023-05-23T07:44:45.380Z,12.88
2023-05-23T07:45:49.289Z,9.48
2023-05-23T07:46:53.209Z,13.02
2023-05-23T07:47:58.006Z,7.80
2023-05-23T07:49:01.870Z,12.57
2023-05-23T07:50:06.090Z,9.93
2023-05-23T07:51:09.528Z,7.07
2023-05-23T07:52:13.034Z,10.00
2023-05-23T07:53:17.327Z,7.40
2023-05-23T07:54:20.426Z,7.38
2023-05-23T07:55:26.328Z,8.40
2023-05-23T07:56:32.082Z,7.57
2023-05-23T07:57:35.229Z,6.70
2023-05-23T07:58:39.020Z,6.85
2023-05-23T07:59:43.080Z,6.97
2023-05-23T08:00:46.764Z,8.88
2023-05-23T08:02:10.187Z,12.05
2023-05-23T08:03:14.596Z,8.80
2023-05-23T08:04:30.182Z,10.02
2023-05-23T08:05:33.433Z,6.80
2023-05-23T08:06:36.892Z,11.00
2023-05-23T08:07:45.990Z,8.70
2023-05-23T08:08:50.688Z,7.43
2023-05-23T08:09:54.571Z,6.63
2023-05-23T08:10:59.040Z,7.03
2023-05-23T08:12:08.436Z,8.60
2023-05-23T08:13:12.072Z,8.02
2023-05-23T08:14:34.913Z,9.75
2023-05-23T08:15:56.697Z,8.30
2023-05-23T08:17:04.573Z,11.02
2023-05-23T08:18:08.003Z,8.00
2023-05-23T08:19:12.077Z,9.32
2023-05-23T08:20:16.097Z,8.15
2023-05-23T08:21:21.839Z,7.03
2023-05-23T08:22:25.646Z,6.55
2023-05-23T08:23:29.066Z,8.80
2023-05-23T08:24:35.047Z,6.40
2023-05-23T08:25:38.902Z,7.35
2023-05-23T08:26:42.916Z,6.50
2023-05-23T08:27:48.881Z,6.78
2023-05-23T08:29:21.460Z,10.57
2023-05-23T08:30:25.949Z,6.22
2023-05-23T08:31:31.094Z,10.02
2023-05-23T08:32:34.549Z,7.65
2023-05-23T08:33:38.087Z,5.53
2023-05-23T08:34:42.470Z,6.40
2023-05-23T08:35:46.236Z,5.22
2023-05-23T08:36:51.208Z,5.07
2023-05-23T08:37:59.100Z,6.38
2023-05-23T08:39:04.413Z,4.57
2023-05-23T08:40:20.793Z,6.28
2023-05-23T08:41:31.940Z,4.80
2023-05-23T08:42:40.301Z,4.40
2023-05-23T08:43:45.927Z,3.90
2023-05-23T08:44:54.701Z,4.85
2023-05-23T08:45:59.127Z,4.07
2023-05-23T08:47:05.939Z,3.60
2023-05-23T08:48:20.999Z,4.82
2023-05-23T08:49:27.060Z,5.32
2023-05-23T08:50:31.828Z,4.55
2023-05-23T08:51:35.205Z,3.75
2023-05-23T08:52:53.233Z,4.10
2023-05-23T08:53:56.931Z,4.13
2023-05-23T08:55:02.033Z,3.20
2023-05-23T08:56:07.089Z,7.82
2023-05-23T08:57:18.307Z,3.50
2023-05-23T08:58:30.350Z,2.92
2023-05-23T08:59:33.956Z,4.38
2023-05-23T09:00:37.150Z,3.65
2023-05-23T09:01:41.949Z,2.67
2023-05-23T09:02:47.865Z,5.22
2023-05-23T09:04:07.635Z,2.80
2023-05-23T09:05:23.457Z,2.63
2023-05-23T09:06:27.496Z,3.75
2023-05-23T09:07:31.538Z,3.80
2023-05-23T09:08:38.836Z,3.38
2023-05-23T09:09:42.408Z,4.05
2023-05-23T09:10:51.770Z,3.55
2023-05-23T09:11:57.000Z,4.18
2023-05-23T09:13:00.469Z,3.58
2023-05-23T09:14:06.143Z,2.40
2023-05-23T09:15:10.542Z,2.83
2023-05-23T09:16:14.431Z,4.53
2023-05-23T09:17:25.376Z,5.53
2023-05-23T09:18:39.299Z,3.15
2023-05-23T09:19:44.053Z,5.18
2023-05-23T09:20:58.083Z,2.10
2023-05-23T09:22:04.180Z,4.30
2023-05-23T09:23:14.793Z,2.33
2023-05-23T09:24:17.933Z,3.10
2023-05-23T09:25:21.981Z,2.20
2023-05-23T09:26:25.236Z,2.33
2023-05-23T09:27:28.408Z,3.50
2023-05-23T09:28:33.000Z,2.35
2023-05-23T09:29:42.073Z,2.55
2023-05-23T09:30:45.219Z,3.70
2023-05-23T09:31:49.591Z,2.28
2023-05-23T09:33:03.898Z,2.85
2023-05-23T09:34:11.492Z,3.10
2023-05-23T09:35:16.002Z,2.35
2023-05-23T09:36:22.039Z,5.97
2023-05-23T09:37:33.272Z,4.28
2023-05-23T09:38:43.243Z,2.15
2023-05-23T09:39:49.859Z,2.17
2023-05-23T09:40:56.936Z,3.13
2023-05-23T09:42:01.582Z,3.47
2023-05-23T09:43:05.839Z,2.47
2023-05-23T09:44:10.021Z,9.65
2023-05-23T09:45:14.056Z,3.17
2023-05-23T09:46:17.714Z,3.67
2023-05-23T09:47:21.297Z,3.38
2023-05-23T09:48:34.444Z,2.70
2023-05-23T09:49:41.567Z,2.15
2023-05-23T09:50:46.524Z,1.83
2023-05-23T09:51:59.556Z,2.15
2023-05-23T09:53:03.046Z,3.75
2023-05-23T09:54:06.857Z,3.42
2023-05-23T09:55:10.582Z,2.55
2023-05-23T09:56:14.111Z,2.40
2023-05-23T09:57:17.914Z,2.97
2023-05-23T09:58:22.137Z,2.40
2023-05-23T09:59:25.509Z,2.65
2023-05-23T10:00:29.769Z,2.83
2023-05-23T10:01:33.528Z,2.95
2023-05-23T10:02:57.824Z,2.75
2023-05-23T10:04:01.554Z,3.30
2023-05-23T10:05:05.717Z,2.47
2023-05-23T10:06:23.190Z,2.80
2023-05-23T10:07:26.804Z,2.95
2023-05-23T10:08:37.853Z,4.25
2023-05-23T10:09:42.596Z,4.00
2023-05-23T10:11:04.061Z,4.50
2023-05-23T10:12:32.141Z,5.25
2023-05-23T10:13:35.900Z,3.63
2023-05-23T10:14:41.342Z,2.80
2023-05-23T10:15:44.582Z,2.75
2023-05-23T10:17:02.619Z,4.00
2023-05-23T10:18:22.524Z,3.35
2023-05-23T10:19:29.958Z,2.70
2023-05-23T10:20:34.033Z,5.20
2023-05-23T10:21:43.128Z,4.40
2023-05-23T10:22:48.368Z,2.80
2023-05-23T10:23:51.743Z,2.63
2023-05-23T10:24:55.399Z,2.83
2023-05-23T10:25:58.526Z,2.28
2023-05-23T10:27:01.527Z,4.28
2023-05-23T10:28:04.722Z,3.78
2023-05-23T10:29:08.171Z,3.35
2023-05-23T10:30:11.856Z,2.60
2023-05-23T10:31:14.876Z,2.42
2023-05-23T10:32:18.553Z,3.97
2023-05-23T10:33:23.551Z,3.85
2023-05-23T10:34:29.598Z,3.80
2023-05-23T10:35:57.686Z,2.25
2023-05-23T10:37:07.543Z,3.78
2023-05-23T10:38:37.987Z,9.05
2023-05-23T10:39:53.077Z,2.40
2023-05-23T10:41:19.995Z,2.42
2023-05-23T10:42:29.953Z,2.90
2023-05-23T10:44:30.114Z,2.70
2023-05-23T10:45:34.194Z,2.65
2023-05-23T10:46:59.591Z,3.00
2023-05-23T10:48:03.197Z,3.45
2023-05-23T10:49:06.502Z,3.10
2023-05-23T10:50:14.895Z,3.13
2023-05-23T10:51:18.656Z,3.20
2023-05-23T10:52:23.408Z,5.93
2023-05-23T10:53:26.374Z,2.45
2023-05-23T10:54:35.208Z,2.95
2023-05-23T10:55:38.805Z,3.58
2023-05-23T10:56:42.641Z,2.60
2023-05-23T10:57:46.717Z,3.47
2023-05-23T10:58:54.532Z,2.50
2023-05-23T10:59:58.096Z,2.50
2023-05-23T11:01:11.326Z,3.15
2023-05-23T11:02:36.194Z,4.28
2023-05-23T11:03:49.872Z,3.67
2023-05-23T11:05:20.437Z,2.75
2023-05-23T11:06:46.523Z,3.85
2023-05-23T11:08:12.296Z,2.70
2023-05-23T11:09:19.862Z,2.78
2023-05-23T11:10:23.058Z,2.53
2023-05-23T11:11:26.346Z,4.07
2023-05-23T11:12:43.299Z,11.18
2023-05-23T11:13:55.912Z,2.58
2023-05-23T11:14:59.395Z,3.30
2023-05-23T11:16:03.203Z,2.70
2023-05-23T11:17:19.844Z,2.88
2023-05-23T11:18:25.109Z,3.78
2023-05-23T11:19:29.558Z,4.03
2023-05-23T11:20:33.507Z,5.90
2023-05-23T11:21:37.732Z,2.80
2023-05-23T11:22:42.910Z,3.63
2023-05-23T11:23:46.467Z,3.50
2023-05-23T11:24:53.583Z,2.80
2023-05-23T11:25:57.637Z,3.92
2023-05-23T11:27:01.687Z,3.72
2023-05-23T11:28:07.853Z,3.00
2023-05-23T11:29:11.045Z,3.28
2023-05-23T11:30:16.749Z,3.60
2023-05-23T11:31:20.602Z,3.13
2023-05-23T11:32:24.395Z,3.67
2023-05-23T11:33:27.729Z,2.30
2023-05-23T11:34:31.612Z,2.90
2023-05-23T11:35:36.020Z,4.25
2023-05-23T11:36:39.852Z,4.72
2023-05-23T11:37:43.053Z,9.43
2023-05-23T11:38:48.996Z,5.10
2023-05-23T11:39:52.313Z,4.97
2023-05-23T11:40:55.371Z,3.42
2023-05-23T11:42:04.289Z,8.50
2023-05-23T11:43:09.595Z,3.17
2023-05-23T11:44:14.195Z,6.22
2023-05-23T11:45:17.588Z,2.78
2023-05-23T11:46:20.755Z,3.67
2023-05-23T11:47:24.393Z,2.67
2023-05-23T11:48:27.978Z,2.65
2023-05-23T11:49:36.164Z,3.25
2023-05-23T11:50:50.308Z,4.78
2023-05-23T11:51:53.921Z,2.40
2023-05-23T11:52:57.486Z,2.67
2023-05-23T11:54:03.636Z,2.38
2023-05-23T11:55:09.446Z,3.25
2023-05-23T11:56:12.604Z,4.60
2023-05-23T11:57:15.847Z,4.70
2023-05-23T11:58:19.186Z,3.88
2023-05-23T11:59:23.553Z,1.75
2023-05-23T12:00:27.329Z,3.97
2023-05-23T12:01:34.385Z,4.75
2023-05-23T12:02:44.518Z,2.40
2023-05-23T12:03:49.625Z,2.15
2023-05-23T12:04:53.625Z,2.78
2023-05-23T12:05:57.589Z,3.05
2023-05-23T12:07:01.289Z,3.38
2023-05-23T12:08:04.899Z,5.15
2023-05-23T12:09:09.301Z,5.00
2023-05-23T12:10:13.035Z,3.80
2023-05-23T12:11:16.625Z,2.60
2023-05-23T12:12:21.121Z,2.33
2023-05-23T12:13:30.682Z,2.63
2023-05-23T12:14:34.132Z,3.03
2023-05-23T12:15:37.202Z,2.33
2023-05-23T12:16:41.031Z,4.45
2023-05-23T12:17:47.586Z,2.55
2023-05-23T12:18:51.279Z,7.28
2023-05-23T12:19:54.753Z,5.60
2023-05-23T12:21:02.385Z,3.92
2023-05-23T12:22:11.432Z,5.28
2023-05-23T12:23:23.969Z,5.47
2023-05-23T12:24:27.209Z,6.78
2023-05-23T12:25:30.717Z,3.10
2023-05-23T12:26:33.734Z,7.10
2023-05-23T12:27:37.687Z,8.38
2023-05-23T12:28:45.694Z,6.88
2023-05-23T12:29:55.624Z,2.30
2023-05-23T12:30:58.509Z,2.97
2023-05-23T12:32:02.809Z,7.97
2023-05-23T12:33:09.529Z,3.60
2023-05-23T12:34:14.166Z,3.72
2023-05-23T12:35:18.204Z,3.30
2023-05-23T12:36:27.422Z,4.53
2023-05-23T12:37:31.918Z,3.10
2023-05-23T12:38:38.538Z,2.30
2023-05-23T12:39:45.720Z,7.82
2023-05-23T12:40:48.717Z,5.55
2023-05-23T12:41:51.820Z,3.17
2023-05-23T12:42:58.255Z,3.65
2023-05-23T12:44:01.488Z,9.93
2023-05-23T12:45:05.390Z,6.65
2023-05-23T12:46:09.312Z,6.25
2023-05-23T12:47:12.804Z,3.60
2023-05-23T12:48:16.217Z,5.55
2023-05-23T12:49:19.513Z,4.72
2023-05-23T12:50:23.555Z,3.30
2023-05-23T12:51:27.181Z,2.58
2023-05-23T12:52:33.724Z,3.75
2023-05-23T12:53:37.159Z,2.75
2023-05-23T12:54:40.442Z,2.75
2023-05-23T12:55:43.855Z,7.15
2023-05-23T12:56:47.388Z,4.38
2023-05-23T12:57:50.691Z,2.90
2023-05-23T12:58:57.654Z,2.95
2023-05-23T13:00:01.206Z,2.28
2023-05-23T13:01:05.313Z,3.67
2023-05-23T13:02:08.797Z,2.65
2023-05-23T13:03:12.184Z,5.10
2023-05-23T13:04:15.952Z,2.85
2023-05-23T13:05:19.341Z,3.70
2023-05-23T13:06:22.877Z,3.22
2023-05-23T13:07:26.522Z,2.58
2023-05-23T13:08:30.525Z,2.28
2023-05-23T13:09:33.792Z,3.20
2023-05-23T13:10:36.569Z,4.95
2023-05-23T13:11:40.103Z,3.20
2023-05-23T13:12:44.192Z,2.17
2023-05-23T13:13:47.537Z,4.25
2023-05-23T13:14:51.054Z,2.35
2023-05-23T13:15:54.479Z,2.17
2023-05-23T13:16:58.079Z,2.30
2023-05-23T13:18:02.163Z,2.47
2023-05-23T13:19:05.539Z,2.55
2023-05-23T13:20:10.272Z,9.23
2023-05-23T13:21:13.549Z,4.97
2023-05-23T13:22:17.162Z,2.35
2023-05-23T13:23:20.248Z,2.30
2023-05-23T13:24:23.846Z,4.90
2023-05-23T13:25:27.715Z,2.22
2023-05-23T13:26:31.232Z,3.85
2023-05-23T13:27:34.811Z,5.07
2023-05-23T13:28:37.962Z,3.00
2023-05-23T13:29:41.723Z,3.63
2023-05-23T13:30:47.322Z,4.82
2023-05-23T13:31:51.318Z,3.28
2023-05-23T13:32:55.213Z,2.10
2023-05-23T13:33:59.076Z,4.47
2023-05-23T13:35:02.771Z,1.98
2023-05-23T13:36:06.583Z,2.30
2023-05-23T13:37:10.317Z,3.83
2023-05-23T13:38:14.132Z,5.88
2023-05-23T13:39:19.800Z,2.33
2023-05-23T13:40:23.888Z,4.72
2023-05-23T13:41:28.440Z,3.00
2023-05-23T13:42:32.253Z,2.42
2023-05-23T13:43:35.544Z,4.05
2023-05-23T13:44:39.279Z,5.50
2023-05-23T13:45:42.571Z,3.95
2023-05-23T13:46:46.120Z,4.45
2023-05-23T13:47:49.264Z,2.15
2023-05-23T13:48:52.506Z,4.93
2023-05-23T13:49:56.100Z,6.35
2023-05-23T13:50:59.750Z,3.20
2023-05-23T13:52:03.656Z,5.80
2023-05-23T13:53:15.646Z,3.53
2023-05-23T13:54:19.113Z,2.47
2023-05-23T13:55:23.105Z,2.53
2023-05-23T13:56:26.746Z,3.85
2023-05-23T13:57:29.788Z,2.72
2023-05-23T13:58:33.023Z,3.97
2023-05-23T13:59:36.994Z,1.83
2023-05-23T14:00:41.030Z,3.17
2023-05-23T14:01:44.443Z,5.13
2023-05-23T14:02:48.397Z,2.50
2023-05-23T14:03:51.865Z,4.50
2023-05-23T14:04:55.363Z,3.28
2023-05-23T14:05:58.203Z,7.75
2023-05-23T14:07:01.604Z,2.20
2023-05-23T14:08:04.985Z,3.72
2023-05-23T14:09:08.297Z,2.17
2023-05-23T14:10:12.450Z,2.08
2023-05-23T14:11:15.570Z,4.10
2023-05-23T14:12:19.119Z,3.35
2023-05-23T14:13:23.648Z,5.70
2023-05-23T14:14:27.948Z,3.03
2023-05-23T14:15:34.398Z,5.95
2023-05-23T14:16:38.577Z,3.63
2023-05-23T14:17:42.429Z,2.88
2023-05-23T14:18:45.798Z,2.90
2023-05-23T14:19:49.332Z,2.03
2023-05-23T14:20:52.531Z,3.08
2023-05-23T14:21:55.685Z,4.35
2023-05-23T14:22:59.120Z,6.80